Terminal Aerodrome Forecast (TAF)

TAF

Data at: 0925 UTC 23 Sep 2021

TAF for:NVSC (Sola/Vanua Lava Arpt, TO, NV) issued at 0447 UTC 23 Sep 2021
Text:TAF NVSC 230447Z 2306/2406 05007KT 9999 BKN020 OVC110
Forecast period:0600 UTC 23 September 2021 to 0600 UTC 24 September 2021
Forecast type:FROM: standard forecast or significant change
Winds:from the NE (50 degrees) at 8 MPH (7 knots; 3.6 m/s)
Visibility:6 or more sm (10+ km)
Ceiling:2000 feet AGL
Clouds: broken clouds at 2000 feet AGL, overcast cloud deck at 11000 feet AGL
Text:INTER 2306/2312 9000 -SHRA FEW010 BKN018
Forecast period:0600 to 1200 UTC 23 September 2021
Forecast type:TEMPORARY: The following changes expected for less than half the time period
Visibility: 6 sm ( 9 km)
Ceiling:1800 feet AGL
Clouds: few clouds at 1000 feet AGL, broken clouds at 1800 feet AGL
Weather:-SHRA (light rain showers)

TAF

Data at: 0925 UTC 23 Sep 2021

TAF for:NVSG (Longana Arpt, PA, NV) issued at 0447 UTC 23 Sep 2021
Text:TAF NVSG 230447Z 2306/2406 05006KT 9999 SCT020 BKN100
Forecast period:0600 UTC 23 September 2021 to 0600 UTC 24 September 2021
Forecast type:FROM: standard forecast or significant change
Winds:from the NE (50 degrees) at 7 MPH (6 knots; 3.1 m/s)
Visibility:6 or more sm (10+ km)
Ceiling:10000 feet AGL
Clouds: scattered clouds at 2000 feet AGL, broken clouds at 10000 feet AGL
Text:INTER 2306/2312 9000 SHRA FEW010 SCT018 BKN050
Forecast period:0600 to 1200 UTC 23 September 2021
Forecast type:TEMPORARY: The following changes expected for less than half the time period
Visibility: 6 sm ( 9 km)
Ceiling:5000 feet AGL
Clouds: few clouds at 1000 feet AGL, scattered clouds at 1800 feet AGL, broken clouds at 5000 feet AGL
Weather:SHRA (rain showers)

TAF

Data at: 0925 UTC 23 Sep 2021

TAF for:NVSS (Santo/Pekoa Intl, SA, NV) issued at 0447 UTC 23 Sep 2021
Text:TAF NVSS 230447Z 2306/2406 04007KT 9999 SCT020 BKN110
Forecast period:0600 UTC 23 September 2021 to 0600 UTC 24 September 2021
Forecast type:FROM: standard forecast or significant change
Winds:from the NE (40 degrees) at 8 MPH (7 knots; 3.6 m/s)
Visibility:6 or more sm (10+ km)
Ceiling:11000 feet AGL
Clouds: scattered clouds at 2000 feet AGL, broken clouds at 11000 feet AGL
Text:INTER 2306/2312 8000 SHRA FEW010 SCT018 BKN050
Forecast period:0600 to 1200 UTC 23 September 2021
Forecast type:TEMPORARY: The following changes expected for less than half the time period
Visibility: 5 sm ( 8 km)
Ceiling:5000 feet AGL
Clouds: few clouds at 1000 feet AGL, scattered clouds at 1800 feet AGL, broken clouds at 5000 feet AGL
Weather:SHRA (rain showers)

TAF

Data at: 0925 UTC 23 Sep 2021

TAF for:NVSL (Malekula Isl/Lamap, MA, NV) issued at 0447 UTC 23 Sep 2021
Text:TAF NVSL 230447Z 2306/2406 18010KT 9999 SCT020 BKN110
Forecast period:0600 UTC 23 September 2021 to 0600 UTC 24 September 2021
Forecast type:FROM: standard forecast or significant change
Winds:from the S (180 degrees) at 12 MPH (10 knots; 5.1 m/s)
Visibility:6 or more sm (10+ km)
Ceiling:11000 feet AGL
Clouds: scattered clouds at 2000 feet AGL, broken clouds at 11000 feet AGL
Text:INTER 2306/2312 7000 -RA FEW010 BKN018 OVC050
Forecast period:0600 to 1200 UTC 23 September 2021
Forecast type:TEMPORARY: The following changes expected for less than half the time period
Visibility: 4 sm ( 7 km)
Ceiling:1800 feet AGL
Clouds: few clouds at 1000 feet AGL, broken clouds at 1800 feet AGL, overcast cloud deck at 5000 feet AGL
Weather:-RA (light rain)

TAF

Data at: 0925 UTC 23 Sep 2021

TAF for:NVSP (Norsup Arpt, MA, NV) issued at 0447 UTC 23 Sep 2021
Text:TAF NVSP 230447Z 2306/2406 17006KT 9999 SCT020 BKN110
Forecast period:0600 UTC 23 September 2021 to 0600 UTC 24 September 2021
Forecast type:FROM: standard forecast or significant change
Winds:from the S (170 degrees) at 7 MPH (6 knots; 3.1 m/s)
Visibility:6 or more sm (10+ km)
Ceiling:11000 feet AGL
Clouds: scattered clouds at 2000 feet AGL, broken clouds at 11000 feet AGL
Text:INTER 2306/2312 7000 -RA FEW010 BKN018 OVC050
Forecast period:0600 to 1200 UTC 23 September 2021
Forecast type:TEMPORARY: The following changes expected for less than half the time period
Visibility: 4 sm ( 7 km)
Ceiling:1800 feet AGL
Clouds: few clouds at 1000 feet AGL, broken clouds at 1800 feet AGL, overcast cloud deck at 5000 feet AGL
Weather:-RA (light rain)

TAF

Data at: 0925 UTC 23 Sep 2021

TAF for:NVVV (Efate/Bauerfield Int, SE, NV) issued at 0447 UTC 23 Sep 2021
Text:TAF NVVV 230447Z 2306/2406 180112KT 9999 SCT020 BKN110
Forecast period:0600 UTC 23 September 2021 to 0600 UTC 24 September 2021
Forecast type:FROM: standard forecast or significant change
Winds:from the S (180 degrees) at 129 MPH (112 knots; 57.6 m/s)
Visibility:6 or more sm (10+ km)
Ceiling:11000 feet AGL
Clouds: scattered clouds at 2000 feet AGL, broken clouds at 11000 feet AGL
Text:INTER 2306/2312 3000 -RA FEW007 BKN016 OVC040
Forecast period:0600 to 1200 UTC 23 September 2021
Forecast type:TEMPORARY: The following changes expected for less than half the time period
Visibility: 1.86 sm ( 2.99 km)
Ceiling:1600 feet AGL
Clouds: few clouds at 700 feet AGL, broken clouds at 1600 feet AGL, overcast cloud deck at 4000 feet AGL
Weather:-RA (light rain)

TAF

Data at: 0925 UTC 23 Sep 2021

TAF for:NVVW (Tanna Arpt, TA, NV) issued at 0447 UTC 23 Sep 2021
Text:TAF NVVW 230447Z 2306/2406 18014KT 9999 SCT020 BKN110
Forecast period:0600 UTC 23 September 2021 to 0600 UTC 24 September 2021
Forecast type:FROM: standard forecast or significant change
Winds:from the S (180 degrees) at 16 MPH (14 knots; 7.2 m/s)
Visibility:6 or more sm (10+ km)
Ceiling:11000 feet AGL
Clouds: scattered clouds at 2000 feet AGL, broken clouds at 11000 feet AGL
Text:INTER 2306/2310 7000 -RA FEW010 BKN018 OVC050
Forecast period:0600 to 1000 UTC 23 September 2021
Forecast type:TEMPORARY: The following changes expected for less than half the time period
Visibility: 4 sm ( 7 km)
Ceiling:1800 feet AGL
Clouds: few clouds at 1000 feet AGL, broken clouds at 1800 feet AGL, overcast cloud deck at 5000 feet AGL
Weather:-RA (light rain)

TAF

Data at: 0925 UTC 23 Sep 2021

TAF for:NVVA (Aneityum/Mystery Isl, TA, NV) issued at 0447 UTC 23 Sep 2021
Text:TAF NVVA 230447Z 2306/2406 18014KT 9999 SCT020 BKN110
Forecast period:0600 UTC 23 September 2021 to 0600 UTC 24 September 2021
Forecast type:FROM: standard forecast or significant change
Winds:from the S (180 degrees) at 16 MPH (14 knots; 7.2 m/s)
Visibility:6 or more sm (10+ km)
Ceiling:11000 feet AGL
Clouds: scattered clouds at 2000 feet AGL, broken clouds at 11000 feet AGL
Text:INTER 2306/2309 8000 SHRA FEW010 BKN018 OVC050
Forecast period:0600 to 0900 UTC 23 September 2021
Forecast type:TEMPORARY: The following changes expected for less than half the time period
Visibility: 5 sm ( 8 km)
Ceiling:1800 feet AGL
Clouds: few clouds at 1000 feet AGL, broken clouds at 1800 feet AGL, overcast cloud deck at 5000 feet AGL
Weather:SHRA (rain showers)

TAF

Data at: 0925 UTC 23 Sep 2021

TAF NVVV 230447Z 2306/2406 180112KT 9999 SCT020 BKN110
  INTER 2306/2312 3000 -RA FEW007 BKN016 OVC040
TAF NVSC 230447Z 2306/2406 05007KT 9999 BKN020 OVC110
  INTER 2306/2312 9000 -SHRA FEW010 BKN018
TAF NVSG 230447Z 2306/2406 05006KT 9999 SCT020 BKN100
  INTER 2306/2312 9000 SHRA FEW010 SCT018 BKN050
TAF NVSS 230447Z 2306/2406 04007KT 9999 SCT020 BKN110
  INTER 2306/2312 8000 SHRA FEW010 SCT018 BKN050
TAF NVSL 230447Z 2306/2406 18010KT 9999 SCT020 BKN110
  INTER 2306/2312 7000 -RA FEW010 BKN018 OVC050
TAF NVSP 230447Z 2306/2406 17006KT 9999 SCT020 BKN110
  INTER 2306/2312 7000 -RA FEW010 BKN018 OVC050
TAF NVVW 230447Z 2306/2406 18014KT 9999 SCT020 BKN110
  INTER 2306/2310 7000 -RA FEW010 BKN018 OVC050
TAF NVVA 230447Z 2306/2406 18014KT 9999 SCT020 BKN110
  INTER 2306/2309 8000 SHRA FEW010 BKN018 OVC050